Time;durP1;ratioP1;P1;durP2;ratioP2;P2;SDS_P1;SDS_P2;PMS_P1;PMS_P2;Temp;Humidity;BMP_temperature;BMP_pressure;BME280_temperature;BME280_humidity;BME280_pressure;Samples;Min_cycle;Max_cycle;Signal;HPM_P1;HPM_P2
2023/08/23 00:02:24;;;;;;;703.08;644.33;;;15.30;83.10;;;;;;6221253;22;20504;-92
2023/08/23 00:04:51;;;;;;;746.60;680.75;;;15.30;82.90;;;;;;6222791;22;20070;-93
2023/08/23 00:07:17;;;;;;;687.45;630.20;;;15.40;83.00;;;;;;6213348;22;20098;-91
2023/08/23 00:09:43;;;;;;;676.67;619.72;;;15.30;83.00;;;;;;6223295;22;20067;-91
2023/08/23 00:12:11;;;;;;;703.42;644.30;;;15.30;83.10;;;;;;6220547;22;20518;-92
2023/08/23 00:14:39;;;;;;;733.30;666.45;;;15.30;83.20;;;;;;6223179;22;20026;-92
2023/08/23 00:17:08;;;;;;;741.75;672.47;;;15.30;83.10;;;;;;6212590;22;20192;-92
2023/08/23 00:19:34;;;;;;;742.88;676.22;;;15.30;83.00;;;;;;6221981;22;20012;-91
2023/08/23 00:22:02;;;;;;;786.60;709.40;;;15.20;82.70;;;;;;6223164;22;20400;-92
2023/08/23 00:24:31;;;;;;;785.33;710.65;;;15.20;82.20;;;;;;6220771;22;20024;-91
2023/08/23 00:26:59;;;;;;;786.67;712.85;;;15.00;81.60;;;;;;6216224;22;20028;-91
2023/08/23 00:29:25;;;;;;;748.05;678.45;;;14.80;81.20;;;;;;6220075;22;20065;-91
2023/08/23 00:31:50;;;;;;;805.33;725.92;;;14.60;81.20;;;;;;6240387;22;20019;-92
2023/08/23 00:34:16;;;;;;;782.88;709.88;;;14.40;81.20;;;;;;6250355;22;20016;-91
2023/08/23 00:36:42;;;;;;;747.55;676.92;;;14.30;81.10;;;;;;6246607;22;20043;-91
2023/08/23 00:39:08;;;;;;;778.03;702.55;;;14.20;80.90;;;;;;6277290;22;20015;-93
2023/08/23 00:41:35;;;;;;;709.92;642.42;;;14.10;80.70;;;;;;6278639;22;20023;-91
2023/08/23 00:44:01;;;;;;;742.17;669.83;;;14.00;80.70;;;;;;6276792;22;20023;-92
2023/08/23 00:46:27;;;;;;;793.45;712.17;;;13.90;80.70;;;;;;6248662;22;20043;-91
2023/08/23 00:48:54;;;;;;;756.83;677.50;;;13.80;81.00;;;;;;6248717;22;20065;-91
2023/08/23 00:51:20;;;;;;;704.08;637.95;;;13.80;81.50;;;;;;6253059;22;20022;-92
2023/08/23 00:53:47;;;;;;;691.60;627.22;;;13.90;82.30;;;;;;6276024;22;20023;-92
2023/08/23 00:56:13;;;;;;;692.78;628.60;;;13.90;82.70;;;;;;6252068;22;20015;-91
2023/08/23 00:58:41;;;;;;;749.97;673.53;;;13.90;83.00;;;;;;6270013;22;20437;-91
2023/08/23 01:01:07;;;;;;;689.20;627.45;;;14.00;83.30;;;;;;6227672;22;20102;-92
2023/08/23 01:03:33;;;;;;;703.17;638.83;;;14.00;83.70;;;;;;6275919;22;20051;-92
2023/08/23 01:06:11;;;;;;;657.65;602.60;;;14.00;84.00;;;;;;6278185;22;20015;-92
2023/08/23 01:09:00;;;;;;;688.85;630.33;;;14.10;83.80;;;;;;6245359;22;20087;-92
2023/08/23 01:11:55;;;;;;;660.58;603.30;;;14.20;83.90;;;;;;6253636;22;20011;-92
2023/08/23 01:14:50;;;;;;;641.50;583.67;;;14.20;83.80;;;;;;6250445;22;20345;-91
2023/08/23 01:17:18;;;;;;;645.70;586.30;;;14.20;83.70;;;;;;6242670;22;20020;-91
2023/08/23 01:19:48;;;;;;;641.55;587.05;;;14.20;83.50;;;;;;6252739;22;20022;-92
2023/08/23 01:22:22;;;;;;;484.13;439.02;;;14.20;83.40;;;;;;6250451;22;20015;-91
2023/08/23 01:24:49;;;;;;;698.53;633.67;;;14.20;83.40;;;;;;6278597;22;20076;-92
2023/08/23 01:27:16;;;;;;;716.03;645.35;;;14.20;83.30;;;;;;6242538;22;20449;-92
2023/08/23 01:29:47;;;;;;;757.95;682.72;;;14.20;83.20;;;;;;6252401;22;20021;-92
2023/08/23 01:32:40;;;;;;;656.70;596.80;;;14.30;83.40;;;;;;6250315;22;20016;-91
2023/08/23 01:35:16;;;;;;;713.33;643.95;;;14.30;83.60;;;;;;6252881;22;20026;-92
2023/08/23 01:37:47;;;;;;;678.90;612.05;;;14.30;83.70;;;;;;6245259;22;20102;-92
2023/08/23 01:40:14;;;;;;;691.83;627.88;;;14.30;83.60;;;;;;6252188;22;20019;-92
2023/08/23 01:42:45;;;;;;;679.60;615.97;;;14.30;83.60;;;;;;6226536;22;20514;-92
2023/08/23 01:45:11;;;;;;;694.88;629.72;;;14.30;83.80;;;;;;6252365;22;20532;-92
2023/08/23 01:47:37;;;;;;;649.50;592.20;;;14.30;84.00;;;;;;6242465;22;20023;-91
2023/08/23 01:50:03;;;;;;;702.42;633.90;;;14.30;83.90;;;;;;6252413;22;20458;-92
2023/08/23 01:52:32;;;;;;;656.80;596.65;;;14.30;83.90;;;;;;6275340;22;20035;-91
2023/08/23 01:54:58;;;;;;;714.72;638.22;;;14.20;83.60;;;;;;6252767;22;20062;-92
2023/08/23 01:57:24;;;;;;;711.80;638.03;;;14.10;83.00;;;;;;6268455;22;20476;-91
2023/08/23 01:59:55;;;;;;;695.25;633.65;;;14.00;82.90;;;;;;6226740;22;20015;-91
2023/08/23 02:02:20;;;;;;;728.40;659.45;;;13.90;82.60;;;;;;6275961;22;20442;-92
2023/08/23 02:04:46;;;;;;;713.80;639.92;;;13.70;82.30;;;;;;6252513;22;20065;-92
2023/08/23 02:07:12;;;;;;;645.72;583.40;;;13.60;82.30;;;;;;6204177;22;20015;-91
2023/08/23 02:09:38;;;;;;;691.20;622.28;;;13.50;82.30;;;;;;6277609;22;20333;-91
2023/08/23 02:12:04;;;;;;;704.33;634.17;;;13.50;82.20;;;;;;6276229;22;20022;-92
2023/08/23 02:14:30;;;;;;;745.08;672.30;;;13.50;82.20;;;;;;6252327;22;20027;-90
2023/08/23 02:16:56;;;;;;;676.85;610.25;;;13.50;82.30;;;;;;6271195;22;20449;-92
2023/08/23 02:19:22;;;;;;;633.30;574.13;;;13.40;82.20;;;;;;6249685;22;20053;-92
2023/08/23 02:21:48;;;;;;;683.83;615.10;;;13.40;82.20;;;;;;6252108;22;20068;-92
2023/08/23 02:24:14;;;;;;;619.50;564.35;;;13.40;82.10;;;;;;6249526;22;20471;-92
2023/08/23 02:26:39;;;;;;;597.10;538.63;;;13.40;82.00;;;;;;6246485;22;20011;-92
2023/08/23 02:29:05;;;;;;;596.78;544.92;;;13.30;81.90;;;;;;6248186;22;20027;-92
2023/08/23 02:31:31;;;;;;;699.40;627.92;;;13.30;82.00;;;;;;6277082;22;20019;-92
2023/08/23 02:34:02;;;;;;;578.97;527.78;;;13.30;81.90;;;;;;6275251;22;20023;-91
2023/08/23 02:36:30;;;;;;;505.60;467.23;;;13.30;81.90;;;;;;6248449;22;20025;-92
2023/08/23 02:38:56;;;;;;;583.78;531.47;;;13.30;81.90;;;;;;6275588;22;20015;-92
2023/08/23 02:41:25;;;;;;;569.95;511.65;;;13.30;82.00;;;;;;6277406;22;20429;-92
2023/08/23 02:43:53;;;;;;;606.70;549.58;;;13.30;82.20;;;;;;6249577;22;20027;-91
2023/08/23 02:46:22;;;;;;;613.70;551.65;;;13.30;82.50;;;;;;6274508;22;20473;-93
2023/08/23 02:48:48;;;;;;;566.20;515.72;;;13.30;82.30;;;;;;6246588;22;20095;-92
2023/08/23 02:51:14;;;;;;;596.97;541.92;;;13.30;82.10;;;;;;6277572;22;20058;-92
2023/08/23 02:53:42;;;;;;;553.85;503.58;;;13.30;82.20;;;;;;6275477;22;20047;-90
2023/08/23 02:56:08;;;;;;;582.05;531.58;;;13.30;82.10;;;;;;6251669;22;20015;-91
2023/08/23 02:58:34;;;;;;;682.60;614.65;;;13.20;82.10;;;;;;6243285;22;20575;-92
2023/08/23 03:01:00;;;;;;;571.60;525.88;;;13.20;82.20;;;;;;6276916;22;20058;-92
2023/08/23 03:03:26;;;;;;;570.97;520.25;;;13.30;82.40;;;;;;6275573;22;20018;-92
2023/08/23 03:05:57;;;;;;;600.00;550.33;;;13.40;83.20;;;;;;6277603;22;20011;-92
2023/08/23 03:08:23;;;;;;;560.97;513.58;;;13.50;83.90;;;;;;6242869;22;20015;-91
2023/08/23 03:10:49;;;;;;;584.08;533.33;;;13.70;84.30;;;;;;6251369;22;20015;-92
2023/08/23 03:13:19;;;;;;;560.40;513.80;;;13.90;84.70;;;;;;6274847;22;20029;-92
2023/08/23 03:15:53;;;;;;;593.97;542.58;;;14.00;85.00;;;;;;6252137;22;20076;-92
2023/08/23 03:18:22;;;;;;;590.53;538.95;;;14.10;85.00;;;;;;6242437;22;20050;-91
2023/08/23 03:20:51;;;;;;;575.15;526.15;;;14.20;84.80;;;;;;6251839;22;20070;-92
2023/08/23 03:23:20;;;;;;;628.47;571.33;;;14.10;84.60;;;;;;6223344;22;20451;-92
2023/08/23 03:25:48;;;;;;;678.20;614.05;;;14.10;84.60;;;;;;6277734;22;20016;-91
2023/08/23 03:28:14;;;;;;;645.20;585.65;;;14.10;84.30;;;;;;6231281;22;20072;-92
2023/08/23 03:30:41;;;;;;;649.20;589.13;;;14.10;84.30;;;;;;6252388;22;20090;-92
2023/08/23 03:33:07;;;;;;;698.67;633.42;;;14.00;84.30;;;;;;6243972;22;20015;-92
2023/08/23 03:35:33;;;;;;;672.70;608.33;;;14.00;84.20;;;;;;6221461;22;20020;-91
2023/08/23 03:38:00;;;;;;;659.42;598.00;;;14.00;84.20;;;;;;6214386;22;20115;-92
2023/08/23 03:40:26;;;;;;;632.95;577.00;;;14.00;84.10;;;;;;6220938;22;20019;-93
2023/08/23 03:42:52;;;;;;;639.67;579.72;;;14.00;84.40;;;;;;6218728;22;20013;-92
2023/08/23 03:45:21;;;;;;;698.20;632.05;;;14.00;84.50;;;;;;6221757;22;20495;-92
2023/08/23 03:47:50;;;;;;;703.33;636.70;;;14.00;84.40;;;;;;6211380;22;20015;-92
2023/08/23 03:50:16;;;;;;;650.15;594.13;;;14.00;84.50;;;;;;6221059;22;20019;-91
2023/08/23 03:52:41;;;;;;;620.60;564.95;;;14.00;84.50;;;;;;6193675;22;20342;-92
2023/08/23 03:55:08;;;;;;;664.30;601.55;;;14.00;84.60;;;;;;6221464;22;20050;-91
2023/08/23 03:57:34;;;;;;;686.83;620.08;;;14.00;84.60;;;;;;6211889;22;20024;-92
2023/08/23 04:00:05;;;;;;;640.40;584.45;;;14.00;84.60;;;;;;6221165;22;20545;-93
2023/08/23 04:02:31;;;;;;;714.67;645.38;;;14.00;84.50;;;;;;6244417;22;20027;-92
2023/08/23 04:04:56;;;;;;;640.28;581.25;;;14.00;84.70;;;;;;6221179;22;20016;-92
2023/08/23 04:07:22;;;;;;;701.30;633.03;;;14.10;84.80;;;;;;6210977;22;20047;-92
2023/08/23 04:09:48;;;;;;;635.05;576.75;;;14.10;85.00;;;;;;6221650;22;20106;-92
2023/08/23 04:12:14;;;;;;;649.67;589.30;;;14.10;85.00;;;;;;6218346;22;20532;-91
2023/08/23 04:14:40;;;;;;;641.17;581.30;;;14.10;85.00;;;;;;6221632;22;20445;-92
2023/08/23 04:17:06;;;;;;;661.00;599.25;;;14.20;85.10;;;;;;6210739;22;20011;-92
2023/08/23 04:19:35;;;;;;;621.25;563.42;;;14.20;85.20;;;;;;6221165;22;20022;-92
2023/08/23 04:22:00;;;;;;;671.00;608.15;;;14.10;85.20;;;;;;6221277;22;20346;-91
2023/08/23 04:24:26;;;;;;;662.95;600.88;;;14.20;85.30;;;;;;6218265;22;20015;-92
2023/08/23 04:26:53;;;;;;;667.92;605.50;;;14.10;85.30;;;;;;6214066;22;20085;-92
2023/08/23 04:29:18;;;;;;;699.80;631.85;;;14.10;85.20;;;;;;6218504;22;20020;-92
2023/08/23 04:31:47;;;;;;;717.03;647.50;;;14.10;85.30;;;;;;6221416;22;20046;-92
2023/08/23 04:34:13;;;;;;;603.40;547.47;;;14.10;85.30;;;;;;6242199;22;20030;-91
2023/08/23 04:36:39;;;;;;;610.13;554.40;;;14.10;85.30;;;;;;6192539;22;20113;-92
2023/08/23 04:39:05;;;;;;;677.78;614.40;;;14.10;85.30;;;;;;6218634;22;20446;-92
2023/08/23 04:41:33;;;;;;;697.72;630.10;;;14.10;85.50;;;;;;6219857;22;20023;-93
2023/08/23 04:43:59;;;;;;;627.50;574.55;;;14.10;85.50;;;;;;6191019;22;20046;-92
2023/08/23 04:46:30;;;;;;;627.70;569.50;;;14.20;85.60;;;;;;6217975;22;20042;-93
2023/08/23 04:48:55;;;;;;;594.45;540.83;;;14.20;85.60;;;;;;6187646;22;20050;-92
2023/08/23 04:51:24;;;;;;;662.10;600.35;;;14.20;85.70;;;;;;6225244;22;20399;-92
2023/08/23 04:53:59;;;;;;;583.88;533.45;;;14.20;85.70;;;;;;6227548;22;20357;-93
2023/08/23 04:56:30;;;;;;;591.78;535.33;;;14.20;85.70;;;;;;6195316;22;20015;-92
2023/08/23 04:58:56;;;;;;;577.13;525.83;;;14.20;85.80;;;;;;6205092;22;20030;-92
2023/08/23 05:01:26;;;;;;;665.58;601.65;;;14.20;85.90;;;;;;6222390;22;20282;-92
2023/08/23 05:03:52;;;;;;;623.63;565.63;;;14.20;85.90;;;;;;6195349;22;20023;-92
2023/08/23 05:06:20;;;;;;;586.53;533.75;;;14.20;86.00;;;;;;6195688;22;20367;-94
2023/08/23 05:08:55;;;;;;;609.35;555.40;;;14.20;86.00;;;;;;6216395;22;20031;-92
2023/08/23 05:11:26;;;;;;;617.53;561.33;;;14.30;86.10;;;;;;6222777;22;20067;-92
2023/08/23 05:13:55;;;;;;;563.65;513.75;;;14.30;86.20;;;;;;6220961;22;20369;-93
2023/08/23 05:16:24;;;;;;;605.05;548.58;;;14.30;86.20;;;;;;6219379;22;20051;-92
2023/08/23 05:18:53;;;;;;;642.53;581.20;;;14.30;86.30;;;;;;6218655;22;20416;-93
2023/08/23 05:21:19;;;;;;;648.85;588.13;;;14.40;86.30;;;;;;6199773;22;20011;-92
2023/08/23 05:23:46;;;;;;;618.80;561.28;;;14.30;86.20;;;;;;6208100;22;20481;-91
2023/08/23 05:26:19;;;;;;;614.85;557.97;;;14.40;86.20;;;;;;6221517;22;20011;-93
2023/08/23 05:28:47;;;;;;;565.65;516.72;;;14.40;86.10;;;;;;6173531;22;20496;-92
2023/08/23 05:31:15;;;;;;;577.97;527.42;;;14.40;86.20;;;;;;6222667;22;20016;-93
2023/08/23 05:33:42;;;;;;;636.83;578.20;;;14.40;86.20;;;;;;6240187;22;20452;-92
2023/08/23 05:36:11;;;;;;;654.83;592.13;;;14.40;86.30;;;;;;6252309;22;20023;-93
2023/08/23 05:38:37;;;;;;;591.78;541.42;;;14.50;86.20;;;;;;6246953;22;20438;-93
2023/08/23 05:41:06;;;;;;;633.95;577.70;;;14.50;86.10;;;;;;6227112;22;20019;-92
2023/08/23 05:43:34;;;;;;;626.47;569.08;;;14.50;86.00;;;;;;6225635;22;20030;-93
2023/08/23 05:46:09;;;;;;;618.85;562.35;;;14.60;86.10;;;;;;6253043;22;20023;-91
2023/08/23 05:48:35;;;;;;;638.47;580.92;;;14.60;86.20;;;;;;6240993;22;20030;-93
2023/08/23 05:51:08;;;;;;;679.10;615.67;;;14.60;86.20;;;;;;6250249;22;20061;-92
2023/08/23 05:53:46;;;;;;;638.00;581.45;;;14.70;86.20;;;;;;6273926;22;20023;-93
2023/08/23 05:56:14;;;;;;;679.67;614.88;;;14.70;86.20;;;;;;6275125;22;20019;-93
2023/08/23 05:58:45;;;;;;;657.60;595.97;;;14.70;86.30;;;;;;6245031;22;20019;-93
2023/08/23 06:01:13;;;;;;;623.65;568.15;;;14.80;86.30;;;;;;6277644;22;20023;-92
2023/08/23 06:03:39;;;;;;;657.20;598.53;;;14.80;86.20;;;;;;6271655;22;20027;-92
2023/08/23 06:06:08;;;;;;;659.97;599.47;;;14.80;86.20;;;;;;6250068;22;20095;-94
2023/08/23 06:08:40;;;;;;;663.88;602.22;;;14.90;86.20;;;;;;6241348;22;20395;-93
2023/08/23 06:11:32;;;;;;;670.10;610.63;;;14.90;86.20;;;;;;6277361;22;20075;-94
2023/08/23 06:14:35;;;;;;;678.35;615.25;;;14.90;86.10;;;;;;6208923;22;20027;-92
2023/08/23 06:17:12;;;;;;;605.38;554.28;;;14.90;86.00;;;;;;6217081;22;20034;-93
2023/08/23 06:20:01;;;;;;;663.25;602.45;;;15.00;86.10;;;;;;6272363;22;20223;-93
2023/08/23 06:22:37;;;;;;;656.63;596.13;;;15.00;86.20;;;;;;6213989;22;20368;-93
2023/08/23 06:25:13;;;;;;;650.63;591.15;;;15.00;86.20;;;;;;6249824;22;20015;-93
2023/08/23 06:27:48;;;;;;;664.33;605.25;;;15.20;86.10;;;;;;6248628;22;20190;-92
2023/08/23 06:30:27;;;;;;;645.00;585.35;;;15.30;86.00;;;;;;6250781;22;20038;-93
2023/08/23 06:32:59;;;;;;;711.38;647.35;;;15.30;85.90;;;;;;6247035;22;20023;-92
2023/08/23 06:35:37;;;;;;;724.05;658.28;;;15.40;85.90;;;;;;6272676;22;20019;-93
2023/08/23 06:38:08;;;;;;;678.70;617.75;;;15.50;85.80;;;;;;6268504;22;20564;-93
2023/08/23 06:40:44;;;;;;;;;;;;;;;;;;;;;
2023/08/23 06:43:35;;;;;;;728.55;662.10;;;15.60;85.60;;;;;;6251599;22;20030;-93
2023/08/23 06:46:12;;;;;;;722.63;657.13;;;15.80;85.50;;;;;;6208114;22;20019;-92
2023/08/23 06:48:49;;;;;;;703.20;640.17;;;15.80;85.40;;;;;;6266570;22;20066;-93
2023/08/23 06:51:20;;;;;;;721.72;655.95;;;15.90;85.30;;;;;;6273184;22;20015;-93
2023/08/23 06:54:24;;;;;;;770.15;700.63;;;16.00;85.10;;;;;;6246722;22;20468;-93
2023/08/23 06:56:52;;;;;;;784.13;710.88;;;16.00;85.00;;;;;;6288536;22;20023;-92
2023/08/23 06:59:30;;;;;;;732.42;665.95;;;16.00;84.90;;;;;;6253400;22;20437;-93
2023/08/23 07:02:01;;;;;;;736.38;669.92;;;16.10;84.80;;;;;;6222117;22;20015;-93
2023/08/23 07:04:30;;;;;;;752.40;687.38;;;16.20;84.80;;;;;;6271408;22;20019;-93
2023/08/23 07:06:58;;;;;;;727.30;665.65;;;16.30;84.80;;;;;;6261688;22;20030;-92
2023/08/23 07:09:45;;;;;;;713.53;652.00;;;16.40;84.80;;;;;;6156307;22;20042;-93
2023/08/23 07:12:11;;;;;;;755.90;688.13;;;16.40;84.70;;;;;;6249230;22;20102;-93
2023/08/23 07:14:49;;;;;;;762.22;695.65;;;16.50;84.70;;;;;;6213271;22;20051;-92
2023/08/23 07:17:27;;;;;;;726.65;662.95;;;16.60;84.70;;;;;;6212328;22;20727;-93
2023/08/23 07:20:01;;;;;;;731.97;669.15;;;16.70;84.80;;;;;;6274059;22;20043;-94
2023/08/23 07:22:27;;;;;;;764.00;696.60;;;16.90;84.90;;;;;;6269826;22;20026;-92
2023/08/23 07:24:56;;;;;;;764.92;698.17;;;17.00;84.90;;;;;;6223162;22;20016;-92
2023/08/23 07:27:50;;;;;;;766.47;699.38;;;17.10;84.60;;;;;;6244701;22;20169;-93
2023/08/23 07:31:17;;;;;;;785.28;716.33;;;17.20;84.30;;;;;;6223375;22;20142;-93
2023/08/23 07:34:10;;;;;;;732.17;667.28;;;17.30;84.10;;;;;;6074590;23;20049;-96
2023/08/23 07:40:29;;;;;;;809.38;733.70;;;17.40;83.60;;;;;;6110101;23;20025;-93
2023/08/23 07:43:54;;;;;;;801.47;728.75;;;17.50;83.50;;;;;;6136191;23;20024;-93
2023/08/23 07:47:11;;;;;;;;;;;;;;;;;;;;;
2023/08/23 07:50:46;;;;;;;;;;;;;;;;;;;;;
2023/08/23 07:57:12;;;;;;;831.47;757.45;;;18.00;83.40;;;;;;6024738;23;20573;-92
2023/08/23 07:59:40;;;;;;;793.38;723.58;;;18.00;83.20;;;;;;6020427;23;20027;-93
2023/08/23 08:03:05;;;;;;;;;;;;;;;;;;;;;
2023/08/23 08:06:23;;;;;;;823.03;750.53;;;18.20;82.70;;;;;;6002513;23;20223;-94
2023/08/23 08:09:15;;;;;;;830.05;755.63;;;18.30;82.60;;;;;;5962247;23;20122;-93
2023/08/23 08:11:47;;;;;;;823.40;750.05;;;18.40;82.50;;;;;;5998353;23;20074;-93
2023/08/23 08:14:43;;;;;;;;;;;;;;;;;;;;;
2023/08/23 08:17:44;;;;;;;862.42;784.15;;;18.50;82.40;;;;;;6119433;23;20017;-94
2023/08/23 08:20:10;;;;;;;823.38;748.80;;;18.60;82.60;;;;;;6083226;23;20075;-92
2023/08/23 08:23:52;;;;;;;;;;;;;;;;;;;;;
2023/08/23 08:26:18;;;;;;;818.83;745.13;;;18.80;82.00;;;;;;6083464;23;20026;-93
2023/08/23 08:35:20;;;;;;;;;;;;;;;;;;;;;
2023/08/23 08:37:57;;;;;;;876.25;795.78;;;19.10;81.40;;;;;;6083618;23;20500;-93
2023/08/23 08:43:38;;;;;;;870.72;787.60;;;19.30;80.10;;;;;;6175248;23;20854;-91
2023/08/23 08:47:09;;;;;;;;;;;;;;;;;;;;;
2023/08/23 08:58:59;;;;;;;881.38;799.30;;;19.50;80.10;;;;;;6269468;22;20338;-95
2023/08/23 09:01:07;;;;;;;836.10;758.78;;;19.60;79.40;;;;;;6224601;22;20070;-89
2023/08/23 09:12:09;;;;;;;864.57;782.77;;;20.00;79.10;;;;;;5927386;23;20110;-93
2023/08/23 09:15:13;;;;;;;816.60;743.55;;;20.20;78.70;;;;;;6031061;23;20540;-95
2023/08/23 09:17:41;;;;;;;804.72;737.03;;;20.30;78.60;;;;;;6100382;23;20029;-93
2023/08/23 09:20:11;;;;;;;776.17;715.00;;;20.40;78.40;;;;;;6123347;23;20378;-90
2023/08/23 09:22:37;;;;;;;757.03;695.42;;;20.50;78.00;;;;;;6130412;22;20594;-92
2023/08/23 09:29:05;;;;;;;778.50;712.80;;;20.50;76.80;;;;;;6130234;23;20024;-93
2023/08/23 09:50:35;;;;;;;847.75;768.92;;;20.50;76.70;;;;;;4857177;27;6230409;-91
2023/08/23 09:53:27;;;;;;;804.20;734.90;;;20.80;76.40;;;;;;5031010;28;20049;-92
2023/08/23 09:59:26;;;;;;;820.45;747.78;;;21.00;75.80;;;;;;4984065;28;20081;-90
2023/08/23 10:01:59;;;;;;;811.55;741.13;;;21.20;75.40;;;;;;4982803;28;20056;-91
2023/08/23 10:07:57;;;;;;;855.05;776.30;;;21.30;74.20;;;;;;4980112;28;20056;-93
2023/08/23 10:14:12;;;;;;;913.35;821.90;;;21.50;73.20;;;;;;4936877;28;20054;-89
2023/08/23 10:16:47;;;;;;;870.85;785.03;;;21.50;74.00;;;;;;4959787;28;20141;-91
2023/08/23 10:20:09;;;;;;;864.95;785.40;;;21.50;70.80;;;;;;4949030;28;20129;-96
2023/08/23 10:22:41;;;;;;;838.30;762.38;;;21.50;70.40;;;;;;4915484;28;21163;-96
2023/08/23 10:25:44;;;;;;;;;;;;;;;;;;;;;
2023/08/23 10:28:18;;;;;;;860.28;781.13;;;21.60;72.00;;;;;;4866112;29;20060;-93
2023/08/23 10:30:49;;;;;;;848.35;770.80;;;21.70;71.80;;;;;;4884641;29;20056;-93
2023/08/23 10:33:19;;;;;;;822.00;750.90;;;21.70;71.80;;;;;;4883678;29;20055;-91
2023/08/23 10:35:47;;;;;;;845.92;771.38;;;21.70;72.00;;;;;;4896685;29;21065;-90
2023/08/23 10:38:13;;;;;;;877.72;800.17;;;21.90;72.50;;;;;;4901934;29;20067;-93
2023/08/23 10:40:42;;;;;;;857.83;779.85;;;21.90;72.30;;;;;;4893659;29;20137;-91
2023/08/23 10:43:30;;;;;;;882.15;800.95;;;22.00;72.50;;;;;;4904659;29;20826;-91
2023/08/23 10:46:02;;;;;;;819.13;745.65;;;22.10;70.20;;;;;;4924600;28;20062;-92
2023/08/23 10:48:28;;;;;;;830.22;756.45;;;22.10;71.40;;;;;;4936700;28;20067;-92
2023/08/23 10:50:54;;;;;;;853.00;776.50;;;22.10;71.40;;;;;;4931790;28;20442;-91
2023/08/23 10:53:21;;;;;;;846.20;770.05;;;22.10;70.80;;;;;;4947464;28;20057;-91
2023/08/23 10:55:48;;;;;;;870.38;792.22;;;22.10;70.40;;;;;;4957191;28;20053;-91
2023/08/23 10:58:15;;;;;;;839.97;766.67;;;22.20;70.50;;;;;;4983100;28;20092;-93
2023/08/23 11:00:42;;;;;;;847.80;770.67;;;22.20;70.30;;;;;;4992142;28;20045;-92
2023/08/23 11:03:10;;;;;;;869.10;788.25;;;22.30;70.40;;;;;;4991097;28;20064;-90
2023/08/23 11:05:36;;;;;;;822.85;750.97;;;22.30;69.90;;;;;;4992960;28;20147;-90
2023/08/23 11:08:02;;;;;;;844.80;769.33;;;22.30;70.50;;;;;;4988901;28;20520;-87
2023/08/23 11:10:31;;;;;;;848.15;770.97;;;22.30;70.70;;;;;;5008285;28;20080;-91
2023/08/23 11:12:57;;;;;;;841.17;766.17;;;22.30;70.60;;;;;;4995044;28;20107;-91
2023/08/23 11:15:26;;;;;;;856.42;780.33;;;22.30;70.70;;;;;;4992300;28;20439;-92
2023/08/23 11:17:52;;;;;;;816.92;744.60;;;22.40;69.80;;;;;;4979520;28;20468;-91
2023/08/23 11:20:20;;;;;;;833.15;759.78;;;22.50;69.60;;;;;;4994080;28;20172;-93
2023/08/23 11:22:48;;;;;;;851.67;775.92;;;22.50;68.90;;;;;;4989317;28;20458;-88
2023/08/23 11:25:17;;;;;;;845.17;768.85;;;22.60;68.60;;;;;;5006780;28;20057;-88
2023/08/23 11:27:46;;;;;;;873.90;788.50;;;22.70;68.30;;;;;;4989133;28;20087;-89
2023/08/23 11:30:11;;;;;;;828.35;755.28;;;22.70;68.20;;;;;;4989907;28;20521;-90
2023/08/23 11:32:37;;;;;;;865.10;780.83;;;22.90;68.40;;;;;;4995764;28;20061;-91
2023/08/23 11:35:06;;;;;;;800.72;729.78;;;23.00;67.20;;;;;;5009298;28;20132;-87
2023/08/23 11:37:34;;;;;;;829.40;753.08;;;23.00;66.00;;;;;;5005830;28;20061;-88
2023/08/23 11:40:07;;;;;;;794.40;720.85;;;23.00;66.10;;;;;;4993619;28;20064;-89
2023/08/23 11:42:42;;;;;;;855.03;772.75;;;23.00;65.60;;;;;;4990686;28;20057;-91
2023/08/23 11:45:09;;;;;;;828.65;749.85;;;23.00;65.70;;;;;;5007806;28;20134;-88
2023/08/23 11:47:36;;;;;;;843.60;765.28;;;23.10;65.50;;;;;;5003529;28;20827;-88
2023/08/23 11:50:05;;;;;;;813.38;737.85;;;23.10;66.10;;;;;;4991658;28;20112;-93
2023/08/23 11:52:31;;;;;;;863.65;783.13;;;23.20;65.70;;;;;;5009606;28;20049;-88
2023/08/23 11:54:58;;;;;;;796.80;725.90;;;23.10;65.90;;;;;;5022851;28;20061;-88
2023/08/23 11:57:26;;;;;;;937.50;837.33;;;23.20;65.80;;;;;;5019067;28;20049;-89
2023/08/23 11:59:52;;;;;;;831.67;753.05;;;23.20;63.50;;;;;;5007487;28;20085;-89
2023/08/23 12:02:18;;;;;;;850.33;766.33;;;23.30;63.40;;;;;;5005468;28;21307;-91
2023/08/23 12:04:44;;;;;;;865.92;779.28;;;23.20;61.40;;;;;;4990199;28;20084;-89
2023/08/23 12:07:10;;;;;;;858.85;776.55;;;23.20;62.50;;;;;;5005196;28;20061;-88
2023/08/23 12:09:36;;;;;;;964.25;828.33;;;23.30;62.40;;;;;;5001797;28;20060;-87
2023/08/23 12:12:03;;;;;;;855.90;771.28;;;23.30;62.40;;;;;;4990393;28;20069;-89
2023/08/23 12:14:29;;;;;;;828.92;752.13;;;23.40;62.90;;;;;;5006120;28;20495;-87
2023/08/23 12:16:55;;;;;;;894.95;800.55;;;23.50;63.00;;;;;;5005098;28;20396;-90
2023/08/23 12:19:21;;;;;;;949.05;817.03;;;23.60;62.30;;;;;;5006634;28;20053;-88
2023/08/23 12:21:49;;;;;;;855.55;771.63;;;23.60;62.30;;;;;;5007213;28;20061;-91
2023/08/23 12:24:16;;;;;;;892.67;800.78;;;23.60;62.20;;;;;;5005017;28;20545;-88
2023/08/23 12:26:41;;;;;;;876.10;786.15;;;23.80;62.10;;;;;;5005292;28;20077;-90
2023/08/23 12:29:09;;;;;;;893.58;801.20;;;23.90;62.10;;;;;;5006253;28;20334;-90
2023/08/23 12:31:35;;;;;;;824.90;748.90;;;23.80;61.90;;;;;;5008429;28;20059;-88
2023/08/23 12:34:02;;;;;;;872.38;788.03;;;23.90;62.40;;;;;;4989403;28;20060;-88
2023/08/23 12:36:37;;;;;;;893.40;799.70;;;23.90;62.40;;;;;;5004874;28;20695;-92
2023/08/23 12:39:05;;;;;;;875.13;785.63;;;24.00;62.50;;;;;;4974997;28;20046;-89
2023/08/23 12:41:31;;;;;;;884.13;793.90;;;24.00;62.30;;;;;;4991952;28;20484;-89
2023/08/23 12:43:57;;;;;;;921.28;803.03;;;24.00;61.70;;;;;;5006745;28;20049;-86
2023/08/23 12:46:25;;;;;;;881.63;795.58;;;24.00;61.50;;;;;;5005414;28;20049;-92
2023/08/23 12:48:51;;;;;;;880.10;789.95;;;24.00;61.80;;;;;;4991952;28;20104;-90
2023/08/23 12:51:24;;;;;;;868.83;782.08;;;24.00;62.00;;;;;;5006844;28;20144;-91
2023/08/23 12:53:50;;;;;;;809.55;734.58;;;24.00;62.30;;;;;;4997639;28;20053;-91
2023/08/23 12:56:16;;;;;;;889.95;796.70;;;24.00;62.20;;;;;;4990252;28;20057;-95
2023/08/23 12:58:45;;;;;;;836.25;757.65;;;24.00;62.00;;;;;;5017489;28;20642;-90
2023/08/23 13:01:12;;;;;;;870.80;781.05;;;23.90;61.20;;;;;;5006215;28;20112;-93
2023/08/23 13:03:38;;;;;;;863.22;779.33;;;23.80;60.90;;;;;;5022889;28;20053;-89
2023/08/23 13:06:03;;;;;;;876.17;781.72;;;23.80;60.80;;;;;;4991637;28;20064;-89
2023/08/23 13:08:29;;;;;;;1150.78;868.20;;;23.80;60.70;;;;;;4991198;28;20155;-91
2023/08/23 13:10:55;;;;;;;888.88;789.40;;;23.80;60.10;;;;;;5007428;28;20499;-88
2023/08/23 13:13:21;;;;;;;876.25;783.67;;;23.80;60.00;;;;;;5004535;28;20053;-93
2023/08/23 13:15:46;;;;;;;887.28;790.08;;;23.70;60.30;;;;;;4990964;28;20176;-88
2023/08/23 13:18:12;;;;;;;868.45;778.97;;;23.60;60.60;;;;;;5001344;28;20061;-88
2023/08/23 13:20:38;;;;;;;850.58;765.70;;;23.60;61.00;;;;;;5024735;28;20136;-90
2023/08/23 13:23:04;;;;;;;865.85;779.40;;;23.70;61.00;;;;;;5008116;28;20148;-90
2023/08/23 13:25:29;;;;;;;831.80;750.45;;;23.80;61.50;;;;;;4975214;28;20048;-91
2023/08/23 13:27:55;;;;;;;829.65;752.80;;;23.80;62.00;;;;;;5010563;28;20403;-90
2023/08/23 13:30:21;;;;;;;1002.58;890.25;;;23.80;62.20;;;;;;4991243;28;20053;-89
2023/08/23 13:32:46;;;;;;;834.30;753.95;;;23.80;61.30;;;;;;4992504;28;20068;-87
2023/08/23 13:35:12;;;;;;;853.33;770.60;;;23.80;62.00;;;;;;4992785;28;20084;-91
2023/08/23 13:37:38;;;;;;;895.58;797.42;;;23.80;61.90;;;;;;5019502;28;20542;-91
2023/08/23 13:40:08;;;;;;;872.53;783.00;;;23.80;61.40;;;;;;5023255;28;20077;-90
2023/08/23 13:42:34;;;;;;;864.35;779.17;;;23.80;61.40;;;;;;4990080;28;20892;-90
2023/08/23 13:45:02;;;;;;;865.70;779.25;;;23.70;61.60;;;;;;5010230;28;20045;-90
2023/08/23 13:47:28;;;;;;;877.90;789.03;;;23.60;62.00;;;;;;4987019;28;20046;-87
2023/08/23 13:49:55;;;;;;;847.95;761.35;;;23.60;62.00;;;;;;5025548;28;20097;-87